Time;durP1;ratioP1;P1;durP2;ratioP2;P2;SDS_P1;SDS_P2;PMS_P1;PMS_P2;Temp;Humidity;BMP_temperature;BMP_pressure;BME280_temperature;BME280_humidity;BME280_pressure;Samples;Min_cycle;Max_cycle;Signal;HPM_P1;HPM_P2
2022/04/08 00:01:04;;;;;;;3.28;2.08;;;;;;;;;;5074682;28;20204;-89
2022/04/08 00:03:31;;;;;;;1.95;1.70;;;;;;;;;;5074253;28;20227;-88
2022/04/08 00:05:59;;;;;;;1.95;1.77;;;;;;;;;;5074552;28;20201;-88
2022/04/08 00:08:26;;;;;;;2.13;1.92;;;;;;;;;;5074440;28;20215;-89
2022/04/08 00:10:54;;;;;;;2.00;1.80;;;;;;;;;;5064797;28;20198;-89
2022/04/08 00:13:23;;;;;;;1.65;1.55;;;;;;;;;;5054181;28;20198;-88
2022/04/08 00:15:50;;;;;;;1.95;1.50;;;;;;;;;;5054142;28;20216;-89
2022/04/08 00:18:19;;;;;;;3.35;2.70;;;;;;;;;;5054100;28;20214;-88
2022/04/08 00:20:47;;;;;;;2.45;2.25;;;;;;;;;;5053795;28;20217;-88
2022/04/08 00:23:14;;;;;;;2.55;2.35;;;;;;;;;;5053742;28;20209;-89
2022/04/08 00:25:42;;;;;;;4.50;1.80;;;;;;;;;;5053894;28;20190;-89
2022/04/08 00:28:09;;;;;;;2.15;1.98;;;;;;;;;;5054001;28;20208;-89
2022/04/08 00:30:38;;;;;;;4.32;2.40;;;;;;;;;;5054054;28;20212;-88
2022/04/08 00:33:06;;;;;;;1.95;1.70;;;;;;;;;;5053833;28;20677;-89
2022/04/08 00:35:33;;;;;;;6.35;2.38;;;;;;;;;;5053696;28;20232;-89
2022/04/08 00:38:01;;;;;;;2.58;2.38;;;;;;;;;;5053974;28;20675;-87
2022/04/08 00:40:29;;;;;;;3.10;1.98;;;;;;;;;;5059565;28;20229;-88
2022/04/08 00:42:56;;;;;;;2.58;2.05;;;;;;;;;;5073363;28;20228;-87
2022/04/08 00:45:24;;;;;;;2.38;2.00;;;;;;;;;;5073292;28;20274;-87
2022/04/08 00:47:52;;;;;;;1.95;1.75;;;;;;;;;;5073439;28;20204;-88
2022/04/08 00:50:22;;;;;;;2.42;2.22;;;;;;;;;;5073382;28;20207;-88
2022/04/08 00:52:49;;;;;;;1.70;1.60;;;;;;;;;;5073167;28;20211;-87
2022/04/08 00:55:16;;;;;;;2.67;2.03;;;;;;;;;;5073323;28;20603;-88
2022/04/08 00:57:43;;;;;;;1.45;1.27;;;;;;;;;;5073276;28;20259;-88
2022/04/08 01:00:12;;;;;;;3.33;2.13;;;;;;;;;;5073001;28;20221;-88
2022/04/08 01:02:40;;;;;;;2.70;1.70;;;;;;;;;;5073096;28;20209;-88
2022/04/08 01:05:10;;;;;;;1.88;1.40;;;;;;;;;;5073711;28;20217;-88
2022/04/08 01:07:38;;;;;;;2.28;1.65;;;;;;;;;;5073870;28;20223;-88
2022/04/08 01:10:07;;;;;;;1.25;1.20;;;;;;;;;;5073416;28;20200;-88
2022/04/08 01:12:34;;;;;;;1.50;1.40;;;;;;;;;;5073150;28;20193;-88
2022/04/08 01:15:02;;;;;;;1.63;1.52;;;;;;;;;;5073765;28;20217;-88
2022/04/08 01:17:29;;;;;;;4.85;1.48;;;;;;;;;;5073521;28;20197;-88
2022/04/08 01:19:56;;;;;;;1.02;1.00;;;;;;;;;;5073414;28;20221;-88
2022/04/08 01:22:25;;;;;;;1.90;1.20;;;;;;;;;;5073199;28;20653;-88
2022/04/08 01:25:02;;;;;;;2.22;1.42;;;;;;;;;;5073250;28;20225;-88
2022/04/08 01:27:30;;;;;;;1.40;1.30;;;;;;;;;;5073233;28;20200;-88
2022/04/08 01:29:57;;;;;;;1.15;1.05;;;;;;;;;;5073162;28;20193;-88
2022/04/08 01:32:25;;;;;;;1.40;1.30;;;;;;;;;;5073059;28;20207;-89
2022/04/08 01:34:53;;;;;;;1.60;1.20;;;;;;;;;;5073122;28;20228;-88
2022/04/08 01:37:20;;;;;;;0.95;0.88;;;;;;;;;;5073368;28;20201;-88
2022/04/08 01:39:48;;;;;;;1.10;1.10;;;;;;;;;;5072777;28;20229;-88
2022/04/08 01:42:22;;;;;;;1.92;1.10;;;;;;;;;;5072928;28;20201;-88
2022/04/08 01:44:49;;;;;;;1.40;1.30;;;;;;;;;;5073098;28;20229;-88
2022/04/08 01:47:17;;;;;;;1.60;1.10;;;;;;;;;;5072931;28;20201;-88
2022/04/08 01:49:44;;;;;;;1.85;1.05;;;;;;;;;;5072837;28;20193;-89
2022/04/08 01:52:11;;;;;;;1.33;1.23;;;;;;;;;;5072571;28;20201;-88
2022/04/08 01:54:39;;;;;;;1.42;1.15;;;;;;;;;;5072872;28;20228;-88
2022/04/08 01:57:06;;;;;;;1.60;1.40;;;;;;;;;;5072294;28;20292;-88
2022/04/08 01:59:35;;;;;;;1.35;1.00;;;;;;;;;;5073169;28;20205;-88
2022/04/08 02:02:02;;;;;;;0.98;0.98;;;;;;;;;;5072532;28;20208;-88
2022/04/08 02:04:30;;;;;;;1.50;1.40;;;;;;;;;;5072185;28;20629;-88
2022/04/08 02:06:58;;;;;;;1.67;0.95;;;;;;;;;;5072109;28;20201;-88
2022/04/08 02:09:25;;;;;;;1.77;1.10;;;;;;;;;;5072322;28;20254;-88
2022/04/08 02:11:52;;;;;;;2.13;1.10;;;;;;;;;;5072000;28;20212;-88
2022/04/08 02:14:20;;;;;;;5.78;2.30;;;;;;;;;;5072932;28;20229;-88
2022/04/08 02:16:48;;;;;;;1.40;1.30;;;;;;;;;;5072694;28;20213;-88
2022/04/08 02:19:16;;;;;;;2.95;1.65;;;;;;;;;;5072662;28;20197;-89
2022/04/08 02:21:43;;;;;;;1.65;1.25;;;;;;;;;;5072249;28;20217;-89
2022/04/08 02:24:13;;;;;;;1.60;1.05;;;;;;;;;;5072480;28;20225;-89
2022/04/08 02:26:40;;;;;;;1.65;0.80;;;;;;;;;;5072525;28;20676;-89
2022/04/08 02:29:08;;;;;;;1.60;1.20;;;;;;;;;;5072567;28;20200;-89
2022/04/08 02:31:35;;;;;;;1.30;1.20;;;;;;;;;;5072616;28;20204;-89
2022/04/08 02:34:04;;;;;;;1.77;1.08;;;;;;;;;;5072574;28;20225;-89
2022/04/08 02:36:32;;;;;;;1.73;1.27;;;;;;;;;;5072616;28;20178;-88
2022/04/08 02:38:59;;;;;;;1.42;1.33;;;;;;;;;;5073069;28;20197;-89
2022/04/08 02:41:27;;;;;;;1.30;1.20;;;;;;;;;;5072322;28;20700;-88
2022/04/08 02:43:54;;;;;;;1.20;1.20;;;;;;;;;;5072820;28;20231;-89
2022/04/08 02:46:22;;;;;;;2.25;1.27;;;;;;;;;;5072150;28;20207;-89
2022/04/08 02:48:50;;;;;;;3.30;1.20;;;;;;;;;;5072497;28;20799;-88
2022/04/08 02:51:18;;;;;;;1.92;1.13;;;;;;;;;;5073169;28;20716;-89
2022/04/08 02:53:46;;;;;;;2.55;1.30;;;;;;;;;;5072566;28;20216;-88
2022/04/08 02:56:13;;;;;;;1.88;1.23;;;;;;;;;;5073224;28;20201;-89
2022/04/08 02:58:40;;;;;;;1.75;1.65;;;;;;;;;;5072502;28;20204;-88
2022/04/08 03:01:08;;;;;;;1.40;1.30;;;;;;;;;;5072317;28;20221;-89
2022/04/08 03:03:35;;;;;;;2.75;2.55;;;;;;;;;;5072663;28;20232;-88
2022/04/08 03:06:02;;;;;;;1.23;1.13;;;;;;;;;;5075963;28;20201;-88
2022/04/08 03:08:31;;;;;;;1.23;1.23;;;;;;;;;;5086252;28;20209;-89
2022/04/08 03:10:59;;;;;;;1.88;0.90;;;;;;;;;;5083379;28;20201;-89
2022/04/08 03:13:26;;;;;;;1.10;1.10;;;;;;;;;;5083668;28;20205;-88
2022/04/08 03:15:54;;;;;;;3.10;1.63;;;;;;;;;;5081342;28;20208;-89
2022/04/08 03:18:21;;;;;;;2.25;1.00;;;;;;;;;;5081488;28;20209;-88
2022/04/08 03:20:48;;;;;;;3.95;1.17;;;;;;;;;;5085272;28;20228;-88
2022/04/08 03:23:16;;;;;;;1.00;1.00;;;;;;;;;;5086006;28;20193;-87
2022/04/08 03:25:44;;;;;;;0.68;0.68;;;;;;;;;;5078242;28;20250;-89
2022/04/08 03:28:12;;;;;;;3.13;1.30;;;;;;;;;;5077948;28;20205;-89
2022/04/08 03:30:40;;;;;;;0.90;0.90;;;;;;;;;;5076574;28;20204;-88
2022/04/08 03:33:08;;;;;;;1.52;1.38;;;;;;;;;;5075999;28;20677;-89
2022/04/08 03:35:35;;;;;;;2.67;1.50;;;;;;;;;;5076329;28;20232;-88
2022/04/08 03:38:04;;;;;;;1.80;1.08;;;;;;;;;;5075462;28;20648;-89
2022/04/08 03:40:31;;;;;;;1.10;1.10;;;;;;;;;;5075640;28;20211;-88
2022/04/08 03:43:00;;;;;;;1.75;1.30;;;;;;;;;;5075287;28;20197;-89
2022/04/08 03:45:27;;;;;;;1.77;1.67;;;;;;;;;;5075357;28;20224;-89
2022/04/08 03:47:54;;;;;;;1.30;1.20;;;;;;;;;;5074866;28;20201;-89
2022/04/08 03:50:22;;;;;;;1.85;1.00;;;;;;;;;;5075207;28;20683;-88
2022/04/08 03:52:49;;;;;;;1.50;1.40;;;;;;;;;;5075217;28;20201;-88
2022/04/08 03:55:17;;;;;;;2.22;1.60;;;;;;;;;;5074623;28;20228;-89
2022/04/08 03:57:45;;;;;;;1.33;1.23;;;;;;;;;;5074550;28;20685;-88
2022/04/08 04:00:15;;;;;;;1.38;1.30;;;;;;;;;;5074902;28;20209;-88
2022/04/08 04:02:42;;;;;;;1.20;1.20;;;;;;;;;;5074523;28;20228;-89
2022/04/08 04:05:11;;;;;;;1.38;1.27;;;;;;;;;;5074628;28;20227;-88
2022/04/08 04:07:39;;;;;;;3.15;1.42;;;;;;;;;;5074284;28;20201;-89
2022/04/08 04:10:08;;;;;;;1.25;1.15;;;;;;;;;;5074827;28;20259;-88
2022/04/08 04:12:35;;;;;;;1.00;1.00;;;;;;;;;;5074777;28;20242;-89
2022/04/08 04:15:04;;;;;;;1.10;1.05;;;;;;;;;;5074556;28;20721;-88
2022/04/08 04:17:33;;;;;;;1.30;1.20;;;;;;;;;;5074737;28;20200;-89
2022/04/08 04:20:01;;;;;;;1.27;1.25;;;;;;;;;;5073913;28;20208;-89
2022/04/08 04:22:28;;;;;;;2.03;1.92;;;;;;;;;;5074602;28;20224;-89
2022/04/08 04:24:55;;;;;;;1.45;1.35;;;;;;;;;;5074916;28;20229;-89
2022/04/08 04:27:39;;;;;;;1.90;1.20;;;;;;;;;;5074649;28;20208;-89
2022/04/08 04:30:08;;;;;;;1.77;1.30;;;;;;;;;;5075946;28;20200;-88
2022/04/08 04:32:37;;;;;;;1.77;1.15;;;;;;;;;;5077003;28;20193;-89
2022/04/08 04:35:07;;;;;;;2.22;1.50;;;;;;;;;;5074536;28;20228;-89
2022/04/08 04:37:37;;;;;;;2.60;2.30;;;;;;;;;;5079642;28;20193;-89
2022/04/08 04:40:08;;;;;;;1.27;1.20;;;;;;;;;;5074394;28;20699;-89
2022/04/08 04:42:35;;;;;;;2.70;1.65;;;;;;;;;;5074464;28;20312;-88
2022/04/08 04:45:03;;;;;;;2.60;1.60;;;;;;;;;;5073972;28;20582;-89
2022/04/08 04:47:30;;;;;;;2.40;1.45;;;;;;;;;;5074349;28;20205;-89
2022/04/08 04:49:59;;;;;;;2.60;1.40;;;;;;;;;;5074136;28;20193;-89
2022/04/08 04:52:26;;;;;;;2.28;1.40;;;;;;;;;;5074041;28;20204;-89
2022/04/08 04:54:56;;;;;;;1.63;1.10;;;;;;;;;;5073654;28;20225;-88
2022/04/08 04:57:23;;;;;;;2.03;1.20;;;;;;;;;;5073865;28;20291;-88
2022/04/08 04:59:51;;;;;;;2.33;1.65;;;;;;;;;;5073601;28;20333;-88
2022/04/08 05:02:18;;;;;;;1.42;1.20;;;;;;;;;;5073640;28;20242;-89
2022/04/08 05:04:47;;;;;;;1.45;1.00;;;;;;;;;;5073933;28;20225;-88
2022/04/08 05:07:18;;;;;;;1.20;1.13;;;;;;;;;;5074125;28;20575;-88
2022/04/08 05:09:50;;;;;;;1.25;1.10;;;;;;;;;;5074107;28;20285;-88
2022/04/08 05:12:17;;;;;;;1.77;1.10;;;;;;;;;;5073780;28;20196;-89
2022/04/08 05:14:45;;;;;;;1.38;1.10;;;;;;;;;;5073661;28;20221;-88
2022/04/08 05:17:12;;;;;;;2.70;1.10;;;;;;;;;;5073600;28;20200;-88
2022/04/08 05:19:39;;;;;;;1.85;1.20;;;;;;;;;;5073378;28;20193;-88
2022/04/08 05:22:07;;;;;;;1.35;1.15;;;;;;;;;;5073501;28;20220;-84
2022/04/08 05:24:35;;;;;;;2.28;1.38;;;;;;;;;;5075985;28;20225;-85
2022/04/08 05:27:03;;;;;;;1.85;1.38;;;;;;;;;;5075394;28;20208;-85
2022/04/08 05:29:30;;;;;;;2.55;1.35;;;;;;;;;;5075416;28;20208;-85
2022/04/08 05:31:57;;;;;;;3.10;2.13;;;;;;;;;;5071282;28;20201;-84
2022/04/08 05:34:27;;;;;;;4.95;3.28;;;;;;;;;;5069391;28;20237;-84
2022/04/08 05:36:54;;;;;;;1.63;1.10;;;;;;;;;;5070682;28;20654;-85
2022/04/08 05:39:21;;;;;;;3.38;1.50;;;;;;;;;;5074772;28;20193;-84
2022/04/08 05:41:50;;;;;;;3.05;1.50;;;;;;;;;;5073681;28;20209;-84
2022/04/08 05:44:17;;;;;;;1.90;1.27;;;;;;;;;;5074150;28;20225;-85
2022/04/08 05:46:45;;;;;;;1.95;1.48;;;;;;;;;;5074827;28;20231;-85
2022/04/08 05:49:12;;;;;;;1.40;1.30;;;;;;;;;;5074096;28;20235;-85
2022/04/08 05:51:39;;;;;;;3.00;1.40;;;;;;;;;;5075121;28;20704;-85
2022/04/08 05:54:06;;;;;;;3.85;2.28;;;;;;;;;;5074267;28;20729;-85
2022/04/08 05:56:34;;;;;;;2.05;1.75;;;;;;;;;;5074315;28;20204;-85
2022/04/08 05:59:02;;;;;;;3.13;1.58;;;;;;;;;;5075164;28;20205;-84
2022/04/08 06:01:30;;;;;;;3.72;2.10;;;;;;;;;;5076248;28;20239;-85
2022/04/08 06:03:57;;;;;;;2.17;1.35;;;;;;;;;;5069785;28;20243;-85
2022/04/08 06:06:25;;;;;;;2.63;1.60;;;;;;;;;;5075435;28;20213;-85
2022/04/08 06:08:52;;;;;;;3.00;2.25;;;;;;;;;;5076217;28;20563;-85
2022/04/08 06:11:19;;;;;;;1.40;1.30;;;;;;;;;;5074963;28;20216;-85
2022/04/08 06:13:46;;;;;;;1.90;1.60;;;;;;;;;;5074120;28;20225;-85
2022/04/08 06:16:15;;;;;;;2.28;1.60;;;;;;;;;;5074606;28;20200;-85
2022/04/08 06:18:42;;;;;;;3.47;1.45;;;;;;;;;;5075058;28;20193;-84
2022/04/08 06:21:10;;;;;;;4.78;1.92;;;;;;;;;;5074383;28;20201;-84
2022/04/08 06:23:37;;;;;;;3.67;1.80;;;;;;;;;;5073362;28;20233;-86
2022/04/08 06:26:04;;;;;;;2.35;1.65;;;;;;;;;;5072900;28;20204;-86
2022/04/08 06:28:31;;;;;;;3.78;1.75;;;;;;;;;;5072930;28;20208;-85
2022/04/08 06:30:59;;;;;;;1.63;1.52;;;;;;;;;;5072721;28;20283;-86
2022/04/08 06:33:27;;;;;;;5.43;1.70;;;;;;;;;;5072118;28;20200;-85
2022/04/08 06:35:55;;;;;;;2.38;1.83;;;;;;;;;;5072698;28;20216;-84
2022/04/08 06:38:22;;;;;;;5.43;2.50;;;;;;;;;;5073315;28;20212;-85
2022/04/08 06:40:49;;;;;;;6.38;2.65;;;;;;;;;;5072293;28;20205;-84
2022/04/08 06:43:16;;;;;;;2.00;1.60;;;;;;;;;;5074727;28;20248;-85
2022/04/08 06:45:44;;;;;;;3.88;2.15;;;;;;;;;;5076448;28;20208;-85
2022/04/08 06:48:11;;;;;;;2.15;1.67;;;;;;;;;;5076154;28;20208;-86
2022/04/08 06:50:40;;;;;;;1.50;1.40;;;;;;;;;;5076478;28;20212;-84
2022/04/08 06:53:07;;;;;;;2.30;2.10;;;;;;;;;;5076412;28;20251;-85
2022/04/08 06:55:35;;;;;;;3.45;1.98;;;;;;;;;;5076499;28;20237;-85
2022/04/08 06:58:04;;;;;;;4.13;2.67;;;;;;;;;;5076195;28;20669;-85
2022/04/08 07:00:32;;;;;;;3.50;1.73;;;;;;;;;;5076069;28;20675;-84
2022/04/08 07:03:00;;;;;;;1.90;1.80;;;;;;;;;;5075906;28;20662;-85
2022/04/08 07:05:28;;;;;;;3.25;2.00;;;;;;;;;;5076410;28;20233;-85
2022/04/08 07:07:57;;;;;;;4.60;2.47;;;;;;;;;;5076118;28;20304;-85
2022/04/08 07:10:25;;;;;;;2.92;1.80;;;;;;;;;;5071708;28;20209;-86
2022/04/08 07:12:52;;;;;;;1.67;1.50;;;;;;;;;;5076331;28;20201;-86
2022/04/08 07:15:19;;;;;;;6.93;1.83;;;;;;;;;;5077270;28;20225;-86
2022/04/08 07:17:47;;;;;;;2.38;1.73;;;;;;;;;;5077461;28;20205;-85
2022/04/08 07:20:15;;;;;;;4.25;2.50;;;;;;;;;;5077519;28;20201;-85
2022/04/08 07:22:42;;;;;;;2.45;1.58;;;;;;;;;;5076342;28;20296;-85
2022/04/08 07:25:12;;;;;;;2.78;2.08;;;;;;;;;;5076508;28;20571;-84
2022/04/08 07:27:44;;;;;;;2.17;1.67;;;;;;;;;;5076820;28;20288;-85
2022/04/08 07:30:12;;;;;;;2.55;1.65;;;;;;;;;;5076260;28;20565;-85
2022/04/08 07:32:39;;;;;;;2.60;1.63;;;;;;;;;;5076685;28;20243;-85
2022/04/08 07:35:08;;;;;;;3.58;1.73;;;;;;;;;;5075892;28;20236;-85
2022/04/08 07:37:36;;;;;;;5.05;1.70;;;;;;;;;;5075819;28;20208;-84
2022/04/08 07:40:07;;;;;;;1.90;1.48;;;;;;;;;;5074590;28;20217;-85
2022/04/08 07:42:36;;;;;;;2.35;1.60;;;;;;;;;;5075247;28;20220;-84
2022/04/08 07:45:06;;;;;;;2.65;2.00;;;;;;;;;;5075132;28;20236;-85
2022/04/08 07:47:34;;;;;;;1.77;1.65;;;;;;;;;;5076391;28;20638;-85
2022/04/08 07:50:03;;;;;;;3.33;1.40;;;;;;;;;;5073513;28;20224;-85
2022/04/08 07:52:30;;;;;;;1.35;1.20;;;;;;;;;;5075423;28;20197;-85
2022/04/08 07:54:58;;;;;;;2.72;1.95;;;;;;;;;;5073619;28;20262;-84
2022/04/08 07:57:25;;;;;;;1.83;1.20;;;;;;;;;;5075704;28;20216;-84
2022/04/08 07:59:54;;;;;;;2.28;1.60;;;;;;;;;;5076364;28;20209;-84
2022/04/08 08:02:22;;;;;;;1.95;1.23;;;;;;;;;;5075823;28;20601;-85
2022/04/08 08:04:50;;;;;;;3.35;1.70;;;;;;;;;;5076213;28;20314;-85
2022/04/08 08:07:17;;;;;;;2.75;1.60;;;;;;;;;;5076884;28;20268;-84
2022/04/08 08:09:45;;;;;;;2.70;1.30;;;;;;;;;;5076554;28;20204;-84
2022/04/08 08:12:12;;;;;;;1.83;1.13;;;;;;;;;;5075928;28;20212;-82
2022/04/08 08:14:39;;;;;;;4.53;1.90;;;;;;;;;;5075491;28;20228;-84
2022/04/08 08:17:08;;;;;;;3.67;1.30;;;;;;;;;;5075510;28;20208;-83
2022/04/08 08:19:36;;;;;;;1.55;1.30;;;;;;;;;;5075236;28;20205;-84
2022/04/08 08:22:04;;;;;;;3.72;1.65;;;;;;;;;;5074415;28;20630;-84
2022/04/08 08:24:31;;;;;;;3.50;2.15;;;;;;;;;;5074416;28;20240;-83
2022/04/08 08:26:58;;;;;;;1.45;1.20;;;;;;;;;;5073886;28;20232;-83
2022/04/08 08:29:26;;;;;;;2.95;1.42;;;;;;;;;;5073726;28;20333;-83
2022/04/08 08:31:53;;;;;;;2.55;1.95;;;;;;;;;;5073580;28;20204;-83
2022/04/08 08:34:22;;;;;;;1.33;1.20;;;;;;;;;;5085712;22;20235;-84
2022/04/08 08:36:49;;;;;;;0.98;0.80;;;;;;;;;;5076219;28;20205;-85
2022/04/08 08:39:16;;;;;;;1.10;1.00;;;;;;;;;;5073846;28;20259;-86
2022/04/08 08:41:44;;;;;;;0.73;0.70;;;;;;;;;;5063109;28;20205;-86
2022/04/08 08:44:12;;;;;;;1.77;1.20;;;;;;;;;;5058418;28;20229;-86
2022/04/08 08:46:39;;;;;;;0.95;0.95;;;;;;;;;;5055188;28;20577;-87
2022/04/08 08:49:06;;;;;;;2.72;1.15;;;;;;;;;;5059689;28;20214;-87
2022/04/08 08:51:37;;;;;;;2.17;1.73;;;;;;;;;;5058969;28;20204;-87
2022/04/08 08:54:05;;;;;;;1.58;1.05;;;;;;;;;;5061881;28;20225;-87
2022/04/08 08:56:33;;;;;;;2.90;1.50;;;;;;;;;;5077822;28;20211;-87
2022/04/08 08:59:00;;;;;;;3.58;1.50;;;;;;;;;;5062253;28;20205;-87
2022/04/08 09:01:27;;;;;;;1.88;1.10;;;;;;;;;;5057759;28;20658;-85
2022/04/08 09:03:55;;;;;;;2.90;1.50;;;;;;;;;;5057194;28;20226;-85
2022/04/08 09:06:22;;;;;;;2.35;1.15;;;;;;;;;;5057672;28;20292;-87
2022/04/08 09:08:58;;;;;;;1.63;1.10;;;;;;;;;;5057635;28;20216;-84
2022/04/08 09:11:26;;;;;;;1.55;1.20;;;;;;;;;;5057528;28;20205;-83
2022/04/08 09:13:54;;;;;;;1.40;1.30;;;;;;;;;;5058574;28;20229;-86
2022/04/08 09:16:27;;;;;;;1.42;1.33;;;;;;;;;;5057739;28;20371;-86
2022/04/08 09:18:55;;;;;;;1.52;1.42;;;;;;;;;;5066440;28;20216;-85
2022/04/08 09:21:23;;;;;;;1.73;1.48;;;;;;;;;;5064477;28;20209;-84
2022/04/08 09:23:50;;;;;;;2.03;1.42;;;;;;;;;;5059281;28;20234;-86
2022/04/08 09:26:19;;;;;;;1.33;1.23;;;;;;;;;;5049306;28;20221;-85
2022/04/08 09:28:47;;;;;;;1.15;0.90;;;;;;;;;;5056624;28;20255;-85
2022/04/08 09:31:20;;;;;;;1.95;1.02;;;;;;;;;;5063862;28;20205;-85
2022/04/08 09:33:50;;;;;;;0.95;0.95;;;;;;;;;;5070408;28;20221;-84
2022/04/08 09:36:28;;;;;;;1.08;0.95;;;;;;;;;;5072007;28;20198;-86
2022/04/08 09:38:55;;;;;;;1.30;1.20;;;;;;;;;;5052271;28;20197;-86
2022/04/08 09:41:38;;;;;;;3.45;1.50;;;;;;;;;;5075987;28;20265;-87
2022/04/08 09:44:07;;;;;;;3.00;1.92;;;;;;;;;;5076582;28;20229;-84
2022/04/08 09:46:36;;;;;;;1.10;0.95;;;;;;;;;;5075605;28;20219;-86
2022/04/08 09:49:05;;;;;;;2.42;1.42;;;;;;;;;;5069546;28;20203;-86
2022/04/08 09:51:38;;;;;;;1.45;1.00;;;;;;;;;;5075191;28;20750;-83
2022/04/08 09:54:10;;;;;;;1.38;1.27;;;;;;;;;;5074949;28;20229;-86
2022/04/08 09:56:39;;;;;;;1.15;1.00;;;;;;;;;;5077033;28;20201;-87
2022/04/08 09:59:12;;;;;;;1.45;0.90;;;;;;;;;;5076329;28;20619;-85
2022/04/08 10:01:40;;;;;;;1.40;1.40;;;;;;;;;;5076160;28;20220;-86
2022/04/08 10:04:09;;;;;;;1.27;1.20;;;;;;;;;;5058825;28;20229;-86
2022/04/08 10:06:37;;;;;;;2.45;1.20;;;;;;;;;;5059542;28;20221;-85
2022/04/08 10:09:06;;;;;;;2.42;1.35;;;;;;;;;;5060003;28;20225;-84
2022/04/08 10:11:44;;;;;;;1.50;1.40;;;;;;;;;;5065621;28;20668;-86
2022/04/08 10:14:30;;;;;;;4.60;1.50;;;;;;;;;;5079154;28;20221;-85
2022/04/08 10:16:58;;;;;;;1.27;1.23;;;;;;;;;;5078531;28;20217;-86
2022/04/08 10:19:25;;;;;;;2.00;1.80;;;;;;;;;;5076806;28;20208;-86
2022/04/08 10:21:55;;;;;;;1.73;1.55;;;;;;;;;;5075589;28;20278;-86
2022/04/08 10:24:26;;;;;;;3.08;1.45;;;;;;;;;;5057289;28;20213;-86
2022/04/08 10:27:01;;;;;;;2.50;1.50;;;;;;;;;;5065491;28;20731;-85
2022/04/08 10:29:29;;;;;;;1.75;1.50;;;;;;;;;;5075991;28;20219;-87
2022/04/08 10:32:00;;;;;;;1.42;1.33;;;;;;;;;;5073411;28;20662;-87
2022/04/08 10:34:29;;;;;;;2.00;1.23;;;;;;;;;;5057835;28;20237;-85
2022/04/08 10:36:56;;;;;;;1.73;1.30;;;;;;;;;;5054309;28;20197;-86
2022/04/08 10:39:24;;;;;;;1.92;1.83;;;;;;;;;;5051350;28;20205;-85
2022/04/08 10:41:53;;;;;;;2.53;1.67;;;;;;;;;;5064249;28;20202;-85
2022/04/08 10:44:36;;;;;;;2.30;2.15;;;;;;;;;;5065817;28;20251;-86
2022/04/08 10:47:10;;;;;;;1.92;1.73;;;;;;;;;;5085713;28;20224;-85
2022/04/08 10:49:49;;;;;;;8.00;2.53;;;;;;;;;;5054295;28;20213;-86
2022/04/08 10:52:18;;;;;;;1.55;1.45;;;;;;;;;;5057449;28;20194;-85
2022/04/08 10:54:46;;;;;;;2.00;1.52;;;;;;;;;;5071369;28;20235;-86
2022/04/08 10:57:13;;;;;;;3.38;2.00;;;;;;;;;;5071145;28;20197;-86
2022/04/08 10:59:52;;;;;;;2.20;2.00;;;;;;;;;;5079905;28;20381;-87
2022/04/08 11:02:20;;;;;;;2.03;1.75;;;;;;;;;;5074956;28;20260;-87
2022/04/08 11:04:47;;;;;;;2.88;1.67;;;;;;;;;;5062835;28;20221;-86
2022/04/08 11:07:15;;;;;;;2.38;1.80;;;;;;;;;;5063682;28;20230;-87
2022/04/08 11:09:43;;;;;;;1.80;1.70;;;;;;;;;;5069132;28;20208;-84
2022/04/08 11:12:11;;;;;;;2.30;1.98;;;;;;;;;;5082932;28;20207;-86
2022/04/08 11:14:38;;;;;;;2.92;2.38;;;;;;;;;;5084416;28;20224;-86
2022/04/08 11:17:07;;;;;;;1.50;1.40;;;;;;;;;;5087086;28;20227;-87
2022/04/08 11:19:34;;;;;;;7.75;2.55;;;;;;;;;;5088414;28;20209;-86
2022/04/08 11:22:11;;;;;;;2.08;1.88;;;;;;;;;;5073623;28;20267;-86
2022/04/08 11:24:41;;;;;;;1.50;1.30;;;;;;;;;;5067029;28;20240;-84
2022/04/08 11:27:10;;;;;;;1.95;1.85;;;;;;;;;;5078311;28;20221;-84
2022/04/08 11:29:39;;;;;;;2.20;1.58;;;;;;;;;;5069913;28;20213;-83
2022/04/08 11:32:12;;;;;;;3.00;1.80;;;;;;;;;;5064562;28;20208;-84
2022/04/08 11:34:39;;;;;;;1.90;1.80;;;;;;;;;;5078742;28;20731;-84
2022/04/08 11:37:07;;;;;;;2.13;1.95;;;;;;;;;;5076898;28;20212;-82
2022/04/08 11:39:35;;;;;;;1.50;1.40;;;;;;;;;;5077599;28;20201;-85
2022/04/08 11:42:04;;;;;;;2.60;2.17;;;;;;;;;;5090229;28;20220;-86
2022/04/08 11:44:32;;;;;;;1.77;1.67;;;;;;;;;;5076430;28;20226;-83
2022/04/08 11:47:07;;;;;;;1.83;1.73;;;;;;;;;;5092203;28;20225;-85
2022/04/08 11:49:36;;;;;;;3.47;2.20;;;;;;;;;;5065174;28;20224;-84
2022/04/08 11:52:04;;;;;;;2.17;2.00;;;;;;;;;;5071496;28;20193;-84
2022/04/08 11:54:37;;;;;;;2.55;2.30;;;;;;;;;;5070805;28;20218;-84
2022/04/08 11:57:07;;;;;;;2.60;2.40;;;;;;;;;;5070504;28;20211;-83
2022/04/08 11:59:35;;;;;;;2.03;1.70;;;;;;;;;;5088999;28;20206;-83
2022/04/08 12:02:04;;;;;;;1.80;1.70;;;;;;;;;;5067748;28;20209;-83
2022/04/08 12:04:31;;;;;;;2.53;2.20;;;;;;;;;;5066353;28;20291;-83
2022/04/08 12:07:00;;;;;;;2.33;1.95;;;;;;;;;;5065741;28;20229;-84
2022/04/08 12:09:28;;;;;;;1.80;1.70;;;;;;;;;;5066964;28;20208;-82
2022/04/08 12:11:57;;;;;;;1.67;1.58;;;;;;;;;;5064158;28;20273;-82
2022/04/08 12:14:25;;;;;;;2.35;2.17;;;;;;;;;;5057879;28;20256;-86
2022/04/08 12:17:03;;;;;;;3.30;3.03;;;;;;;;;;5057980;28;20208;-85
2022/04/08 12:19:39;;;;;;;2.22;2.13;;;;;;;;;;5074741;28;20201;-84
2022/04/08 12:22:12;;;;;;;1.80;1.70;;;;;;;;;;5069487;28;20220;-83
2022/04/08 12:24:41;;;;;;;1.80;1.70;;;;;;;;;;5063333;28;20240;-83
2022/04/08 12:27:13;;;;;;;2.47;2.30;;;;;;;;;;5063651;28;20270;-83
2022/04/08 12:29:40;;;;;;;2.50;2.40;;;;;;;;;;5050884;28;20216;-83
2022/04/08 12:32:14;;;;;;;1.80;1.70;;;;;;;;;;5055568;28;20212;-81
2022/04/08 12:34:42;;;;;;;2.10;1.95;;;;;;;;;;5056247;28;20688;-83
2022/04/08 12:37:11;;;;;;;1.80;1.70;;;;;;;;;;5055881;28;20210;-85
2022/04/08 12:39:39;;;;;;;2.20;1.88;;;;;;;;;;5057554;28;20269;-83
2022/04/08 12:42:06;;;;;;;1.70;1.60;;;;;;;;;;5075247;28;20201;-83
2022/04/08 12:44:34;;;;;;;1.70;1.60;;;;;;;;;;5076419;28;20225;-84
2022/04/08 12:47:01;;;;;;;2.03;1.92;;;;;;;;;;5076003;28;20267;-84
2022/04/08 12:49:28;;;;;;;1.58;1.48;;;;;;;;;;5070682;28;20201;-83
2022/04/08 12:51:56;;;;;;;3.10;2.85;;;;;;;;;;5074981;28;20205;-85
2022/04/08 12:54:24;;;;;;;2.83;2.22;;;;;;;;;;5074412;28;20229;-83
2022/04/08 12:56:52;;;;;;;3.42;2.83;;;;;;;;;;5074403;28;20201;-85
2022/04/08 12:59:19;;;;;;;2.38;1.98;;;;;;;;;;5075138;28;20672;-84
2022/04/08 13:01:46;;;;;;;2.47;2.22;;;;;;;;;;5072993;28;20201;-83
2022/04/08 13:04:13;;;;;;;1.70;1.60;;;;;;;;;;5062881;28;20229;-84
2022/04/08 13:06:41;;;;;;;1.52;1.42;;;;;;;;;;5075579;28;20247;-83
2022/04/08 13:09:08;;;;;;;1.80;1.70;;;;;;;;;;5079621;28;20269;-85
2022/04/08 13:11:37;;;;;;;2.13;2.03;;;;;;;;;;5060840;28;20753;-84
2022/04/08 13:14:04;;;;;;;2.30;2.10;;;;;;;;;;5069674;28;20224;-84
2022/04/08 13:16:31;;;;;;;2.13;1.92;;;;;;;;;;5061859;28;20197;-84
2022/04/08 13:18:59;;;;;;;2.45;2.25;;;;;;;;;;5074734;28;20209;-83
2022/04/08 13:21:26;;;;;;;4.07;2.33;;;;;;;;;;5075834;28;20209;-85
2022/04/08 13:23:53;;;;;;;2.13;1.92;;;;;;;;;;5062426;28;20232;-83
2022/04/08 13:26:21;;;;;;;2.37;2.17;;;;;;;;;;5064205;28;20208;-84
2022/04/08 13:28:49;;;;;;;2.83;1.95;;;;;;;;;;5075045;28;20204;-85
2022/04/08 13:31:17;;;;;;;2.15;2.03;;;;;;;;;;5076108;28;20201;-84
2022/04/08 13:33:44;;;;;;;1.88;1.77;;;;;;;;;;5057492;28;20213;-84
2022/04/08 13:36:11;;;;;;;1.77;1.67;;;;;;;;;;5069277;28;20583;-84
2022/04/08 13:38:38;;;;;;;2.05;1.95;;;;;;;;;;5075120;28;20197;-83
2022/04/08 13:41:06;;;;;;;2.15;2.05;;;;;;;;;;5068330;28;20206;-85
2022/04/08 13:43:33;;;;;;;1.98;1.88;;;;;;;;;;5057049;28;20202;-84
2022/04/08 13:46:02;;;;;;;2.05;1.90;;;;;;;;;;5070273;28;20208;-84
2022/04/08 13:48:29;;;;;;;1.92;1.83;;;;;;;;;;5071522;28;20442;-84
2022/04/08 13:50:57;;;;;;;2.35;1.80;;;;;;;;;;5075203;28;20204;-85
2022/04/08 13:53:24;;;;;;;2.47;1.63;;;;;;;;;;5075754;28;20554;-84
2022/04/08 13:55:51;;;;;;;1.70;1.60;;;;;;;;;;5075116;28;20231;-83
2022/04/08 13:58:19;;;;;;;2.15;2.05;;;;;;;;;;5075228;28;20262;-82
2022/04/08 14:00:46;;;;;;;2.05;1.70;;;;;;;;;;5059531;28;20304;-84
2022/04/08 14:03:15;;;;;;;1.77;1.67;;;;;;;;;;5059242;28;20213;-84
2022/04/08 14:05:42;;;;;;;1.90;1.80;;;;;;;;;;5055681;28;20229;-84
2022/04/08 14:08:15;;;;;;;4.05;1.95;;;;;;;;;;5055541;28;20233;-84
2022/04/08 14:10:42;;;;;;;3.42;1.90;;;;;;;;;;5062121;28;20231;-81
2022/04/08 14:13:09;;;;;;;1.70;1.60;;;;;;;;;;5056009;28;20202;-84
2022/04/08 14:15:37;;;;;;;1.90;1.77;;;;;;;;;;5061736;28;20256;-84
2022/04/08 14:18:04;;;;;;;1.88;1.40;;;;;;;;;;5067503;28;20201;-84
2022/04/08 14:20:34;;;;;;;2.53;1.45;;;;;;;;;;5065827;28;20197;-84
2022/04/08 14:23:03;;;;;;;2.05;1.95;;;;;;;;;;5054097;28;20208;-84
2022/04/08 14:25:30;;;;;;;2.10;2.00;;;;;;;;;;5053958;28;20233;-84
2022/04/08 14:27:58;;;;;;;1.50;1.40;;;;;;;;;;5068049;28;20319;-85
2022/04/08 14:30:25;;;;;;;2.05;1.95;;;;;;;;;;5074040;28;20201;-82
2022/04/08 14:32:53;;;;;;;1.90;1.70;;;;;;;;;;5062909;28;20213;-83
2022/04/08 14:35:21;;;;;;;1.80;1.70;;;;;;;;;;5061201;22;20229;-84
2022/04/08 14:37:49;;;;;;;2.47;1.52;;;;;;;;;;5054395;28;20252;-86
2022/04/08 14:40:17;;;;;;;1.52;1.42;;;;;;;;;;5054969;28;20575;-84
2022/04/08 14:42:44;;;;;;;1.23;1.13;;;;;;;;;;5055593;28;20201;-87
2022/04/08 14:45:12;;;;;;;1.10;1.10;;;;;;;;;;5054751;28;20222;-84
2022/04/08 14:47:40;;;;;;;1.38;1.27;;;;;;;;;;5053952;28;20716;-85
2022/04/08 14:50:08;;;;;;;2.15;1.42;;;;;;;;;;5054400;28;20206;-85